sensor_id;sensor_type;location;lat;lon;timestamp;P1;durP1;ratioP1;P2;durP2;ratioP2
58876;SDS011;44659;47.002;9.536;2022-07-12T00:00:27;1.20;;;0.60;;
58876;SDS011;44659;47.002;9.536;2022-07-12T00:02:55;2.70;;;0.90;;
58876;SDS011;44659;47.002;9.536;2022-07-12T00:05:20;1.38;;;0.70;;
58876;SDS011;44659;47.002;9.536;2022-07-12T00:07:45;1.27;;;0.60;;
58876;SDS011;44659;47.002;9.536;2022-07-12T00:10:10;0.70;;;0.60;;
58876;SDS011;44659;47.002;9.536;2022-07-12T00:12:35;1.58;;;0.70;;
58876;SDS011;44659;47.002;9.536;2022-07-12T00:15:01;0.60;;;0.60;;
58876;SDS011;44659;47.002;9.536;2022-07-12T00:17:26;0.93;;;0.60;;
58876;SDS011;44659;47.002;9.536;2022-07-12T00:19:51;1.73;;;0.70;;
58876;SDS011;44659;47.002;9.536;2022-07-12T00:22:16;1.43;;;0.70;;
58876;SDS011;44659;47.002;9.536;2022-07-12T00:24:41;1.00;;;0.70;;
58876;SDS011;44659;47.002;9.536;2022-07-12T00:27:07;1.03;;;0.63;;
58876;SDS011;44659;47.002;9.536;2022-07-12T00:29:32;3.63;;;0.88;;
58876;SDS011;44659;47.002;9.536;2022-07-12T00:31:57;2.07;;;0.60;;
58876;SDS011;44659;47.002;9.536;2022-07-12T00:34:22;1.60;;;0.80;;
58876;SDS011;44659;47.002;9.536;2022-07-12T00:36:47;1.13;;;0.60;;
58876;SDS011;44659;47.002;9.536;2022-07-12T00:39:13;1.90;;;0.70;;
58876;SDS011;44659;47.002;9.536;2022-07-12T00:41:38;0.90;;;0.50;;
58876;SDS011;44659;47.002;9.536;2022-07-12T00:44:03;1.10;;;0.50;;
58876;SDS011;44659;47.002;9.536;2022-07-12T00:46:29;3.53;;;0.70;;
58876;SDS011;44659;47.002;9.536;2022-07-12T00:48:56;1.05;;;0.60;;
58876;SDS011;44659;47.002;9.536;2022-07-12T00:51:21;0.70;;;0.60;;
58876;SDS011;44659;47.002;9.536;2022-07-12T00:53:46;2.08;;;0.70;;
58876;SDS011;44659;47.002;9.536;2022-07-12T00:56:12;1.33;;;0.70;;
58876;SDS011;44659;47.002;9.536;2022-07-12T00:58:37;2.05;;;0.60;;
58876;SDS011;44659;47.002;9.536;2022-07-12T01:01:02;4.77;;;0.70;;
58876;SDS011;44659;47.002;9.536;2022-07-12T01:03:28;1.20;;;0.63;;
58876;SDS011;44659;47.002;9.536;2022-07-12T01:05:53;1.73;;;0.70;;
58876;SDS011;44659;47.002;9.536;2022-07-12T01:08:18;2.10;;;0.90;;
58876;SDS011;44659;47.002;9.536;2022-07-12T01:10:44;1.17;;;0.65;;
58876;SDS011;44659;47.002;9.536;2022-07-12T01:13:09;1.75;;;0.80;;
58876;SDS011;44659;47.002;9.536;2022-07-12T01:15:35;1.35;;;0.68;;
58876;SDS011;44659;47.002;9.536;2022-07-12T01:18:00;1.25;;;0.60;;
58876;SDS011;44659;47.002;9.536;2022-07-12T01:20:25;1.13;;;0.60;;
58876;SDS011;44659;47.002;9.536;2022-07-12T01:22:54;2.22;;;0.70;;
58876;SDS011;44659;47.002;9.536;2022-07-12T01:25:20;1.00;;;0.60;;
58876;SDS011;44659;47.002;9.536;2022-07-12T01:27:45;0.95;;;0.70;;
58876;SDS011;44659;47.002;9.536;2022-07-12T01:30:10;0.77;;;0.70;;
58876;SDS011;44659;47.002;9.536;2022-07-12T01:32:36;1.17;;;1.02;;
58876;SDS011;44659;47.002;9.536;2022-07-12T01:35:02;1.37;;;0.63;;
58876;SDS011;44659;47.002;9.536;2022-07-12T01:37:30;2.60;;;0.80;;
58876;SDS011;44659;47.002;9.536;2022-07-12T01:39:56;1.70;;;0.80;;
58876;SDS011;44659;47.002;9.536;2022-07-12T01:42:22;1.63;;;0.70;;
58876;SDS011;44659;47.002;9.536;2022-07-12T01:44:48;1.77;;;0.80;;
58876;SDS011;44659;47.002;9.536;2022-07-12T01:47:14;1.00;;;0.60;;
58876;SDS011;44659;47.002;9.536;2022-07-12T01:49:39;0.83;;;0.57;;
58876;SDS011;44659;47.002;9.536;2022-07-12T01:52:04;1.37;;;0.80;;
58876;SDS011;44659;47.002;9.536;2022-07-12T01:54:29;1.60;;;0.88;;
58876;SDS011;44659;47.002;9.536;2022-07-12T01:56:55;3.87;;;0.70;;
58876;SDS011;44659;47.002;9.536;2022-07-12T01:59:20;2.33;;;0.88;;
58876;SDS011;44659;47.002;9.536;2022-07-12T02:01:45;1.42;;;0.65;;
58876;SDS011;44659;47.002;9.536;2022-07-12T02:04:11;1.50;;;0.75;;
58876;SDS011;44659;47.002;9.536;2022-07-12T02:06:36;1.70;;;0.83;;
58876;SDS011;44659;47.002;9.536;2022-07-12T02:09:01;1.63;;;0.70;;
58876;SDS011;44659;47.002;9.536;2022-07-12T02:11:26;2.83;;;0.83;;
58876;SDS011;44659;47.002;9.536;2022-07-12T02:13:52;1.33;;;0.70;;
58876;SDS011;44659;47.002;9.536;2022-07-12T02:16:17;1.80;;;1.00;;
58876;SDS011;44659;47.002;9.536;2022-07-12T02:18:42;1.07;;;0.67;;
58876;SDS011;44659;47.002;9.536;2022-07-12T02:21:08;2.47;;;0.70;;
58876;SDS011;44659;47.002;9.536;2022-07-12T02:23:33;1.40;;;0.70;;
58876;SDS011;44659;47.002;9.536;2022-07-12T02:25:58;1.80;;;1.00;;
58876;SDS011;44659;47.002;9.536;2022-07-12T02:28:23;4.73;;;1.00;;
58876;SDS011;44659;47.002;9.536;2022-07-12T02:30:48;1.23;;;0.83;;
58876;SDS011;44659;47.002;9.536;2022-07-12T02:33:14;4.13;;;1.03;;
58876;SDS011;44659;47.002;9.536;2022-07-12T02:35:42;1.75;;;0.85;;
58876;SDS011;44659;47.002;9.536;2022-07-12T02:38:08;1.92;;;0.80;;
58876;SDS011;44659;47.002;9.536;2022-07-12T02:40:33;1.73;;;0.82;;
58876;SDS011;44659;47.002;9.536;2022-07-12T02:43:17;1.52;;;0.90;;
58876;SDS011;44659;47.002;9.536;2022-07-12T02:45:42;1.17;;;0.70;;
58876;SDS011;44659;47.002;9.536;2022-07-12T02:48:07;1.83;;;1.00;;
58876;SDS011;44659;47.002;9.536;2022-07-12T02:50:32;3.23;;;1.17;;
58876;SDS011;44659;47.002;9.536;2022-07-12T02:52:57;2.40;;;1.23;;
58876;SDS011;44659;47.002;9.536;2022-07-12T02:55:23;5.50;;;0.87;;
58876;SDS011;44659;47.002;9.536;2022-07-12T02:57:48;2.63;;;0.97;;
58876;SDS011;44659;47.002;9.536;2022-07-12T03:00:14;5.93;;;1.00;;
58876;SDS011;44659;47.002;9.536;2022-07-12T03:02:39;3.30;;;1.30;;
58876;SDS011;44659;47.002;9.536;2022-07-12T03:05:04;2.23;;;1.13;;
58876;SDS011;44659;47.002;9.536;2022-07-12T03:07:30;1.88;;;0.80;;
58876;SDS011;44659;47.002;9.536;2022-07-12T03:09:55;1.83;;;1.00;;
58876;SDS011;44659;47.002;9.536;2022-07-12T03:12:20;3.23;;;1.00;;
58876;SDS011;44659;47.002;9.536;2022-07-12T03:14:45;1.43;;;1.00;;
58876;SDS011;44659;47.002;9.536;2022-07-12T03:17:18;1.53;;;0.90;;
58876;SDS011;44659;47.002;9.536;2022-07-12T03:19:44;1.88;;;1.00;;
58876;SDS011;44659;47.002;9.536;2022-07-12T03:22:09;1.80;;;1.00;;
58876;SDS011;44659;47.002;9.536;2022-07-12T03:24:34;1.43;;;0.93;;
58876;SDS011;44659;47.002;9.536;2022-07-12T03:26:59;1.80;;;1.00;;
58876;SDS011;44659;47.002;9.536;2022-07-12T03:29:24;3.23;;;1.00;;
58876;SDS011;44659;47.002;9.536;2022-07-12T03:31:49;1.30;;;0.80;;
58876;SDS011;44659;47.002;9.536;2022-07-12T03:34:15;2.37;;;0.97;;
58876;SDS011;44659;47.002;9.536;2022-07-12T03:36:40;2.17;;;1.00;;
58876;SDS011;44659;47.002;9.536;2022-07-12T03:39:05;4.43;;;1.20;;
58876;SDS011;44659;47.002;9.536;2022-07-12T03:41:30;5.20;;;1.00;;
58876;SDS011;44659;47.002;9.536;2022-07-12T03:43:56;2.35;;;1.15;;
58876;SDS011;44659;47.002;9.536;2022-07-12T03:46:21;4.00;;;2.30;;
58876;SDS011;44659;47.002;9.536;2022-07-12T03:48:46;3.20;;;1.13;;
58876;SDS011;44659;47.002;9.536;2022-07-12T03:51:11;3.93;;;1.40;;
58876;SDS011;44659;47.002;9.536;2022-07-12T03:53:36;3.20;;;1.30;;
58876;SDS011;44659;47.002;9.536;2022-07-12T03:56:02;6.03;;;1.50;;
58876;SDS011;44659;47.002;9.536;2022-07-12T03:58:27;3.13;;;1.27;;
58876;SDS011;44659;47.002;9.536;2022-07-12T04:00:52;2.43;;;1.17;;
58876;SDS011;44659;47.002;9.536;2022-07-12T04:03:17;6.55;;;1.20;;
58876;SDS011;44659;47.002;9.536;2022-07-12T04:05:43;7.43;;;1.20;;
58876;SDS011;44659;47.002;9.536;2022-07-12T04:08:08;2.33;;;1.00;;
58876;SDS011;44659;47.002;9.536;2022-07-12T04:10:33;3.10;;;1.20;;
58876;SDS011;44659;47.002;9.536;2022-07-12T04:12:58;2.60;;;1.20;;
58876;SDS011;44659;47.002;9.536;2022-07-12T04:15:24;4.30;;;1.00;;
58876;SDS011;44659;47.002;9.536;2022-07-12T04:17:49;4.50;;;1.10;;
58876;SDS011;44659;47.002;9.536;2022-07-12T04:20:14;2.13;;;1.00;;
58876;SDS011;44659;47.002;9.536;2022-07-12T04:22:39;2.78;;;1.13;;
58876;SDS011;44659;47.002;9.536;2022-07-12T04:25:08;1.70;;;1.00;;
58876;SDS011;44659;47.002;9.536;2022-07-12T04:27:34;3.10;;;1.10;;
58876;SDS011;44659;47.002;9.536;2022-07-12T04:30:00;2.80;;;1.40;;
58876;SDS011;44659;47.002;9.536;2022-07-12T04:32:25;1.67;;;0.90;;
58876;SDS011;44659;47.002;9.536;2022-07-12T04:34:50;1.83;;;0.93;;
58876;SDS011;44659;47.002;9.536;2022-07-12T04:37:15;1.63;;;1.00;;
58876;SDS011;44659;47.002;9.536;2022-07-12T04:39:40;5.50;;;1.00;;
58876;SDS011;44659;47.002;9.536;2022-07-12T04:42:06;2.67;;;1.17;;
58876;SDS011;44659;47.002;9.536;2022-07-12T04:44:31;2.00;;;0.93;;
58876;SDS011;44659;47.002;9.536;2022-07-12T04:46:56;5.03;;;1.20;;
58876;SDS011;44659;47.002;9.536;2022-07-12T04:49:21;2.15;;;1.10;;
58876;SDS011;44659;47.002;9.536;2022-07-12T04:51:46;2.43;;;1.10;;
58876;SDS011;44659;47.002;9.536;2022-07-12T04:54:12;2.50;;;1.30;;
58876;SDS011;44659;47.002;9.536;2022-07-12T04:56:37;6.67;;;1.20;;
58876;SDS011;44659;47.002;9.536;2022-07-12T04:59:02;5.20;;;1.20;;
58876;SDS011;44659;47.002;9.536;2022-07-12T05:01:30;2.63;;;1.15;;
58876;SDS011;44659;47.002;9.536;2022-07-12T05:03:56;3.90;;;1.30;;
58876;SDS011;44659;47.002;9.536;2022-07-12T05:06:21;2.33;;;1.40;;
58876;SDS011;44659;47.002;9.536;2022-07-12T05:08:47;2.85;;;1.40;;
58876;SDS011;44659;47.002;9.536;2022-07-12T05:11:13;3.20;;;1.30;;
58876;SDS011;44659;47.002;9.536;2022-07-12T05:13:38;2.28;;;1.15;;
58876;SDS011;44659;47.002;9.536;2022-07-12T05:16:05;3.13;;;1.20;;
58876;SDS011;44659;47.002;9.536;2022-07-12T05:18:30;2.92;;;1.20;;
58876;SDS011;44659;47.002;9.536;2022-07-12T05:20:55;4.13;;;1.37;;
58876;SDS011;44659;47.002;9.536;2022-07-12T05:23:21;2.28;;;1.30;;
58876;SDS011;44659;47.002;9.536;2022-07-12T05:25:47;2.50;;;1.30;;
58876;SDS011;44659;47.002;9.536;2022-07-12T05:28:13;3.50;;;1.30;;
58876;SDS011;44659;47.002;9.536;2022-07-12T05:30:38;5.88;;;1.20;;
58876;SDS011;44659;47.002;9.536;2022-07-12T05:33:04;2.63;;;1.40;;
58876;SDS011;44659;47.002;9.536;2022-07-12T05:35:29;3.17;;;1.40;;
58876;SDS011;44659;47.002;9.536;2022-07-12T05:37:54;3.73;;;1.37;;
58876;SDS011;44659;47.002;9.536;2022-07-12T05:40:19;2.90;;;1.37;;
58876;SDS011;44659;47.002;9.536;2022-07-12T05:42:44;3.10;;;1.27;;
58876;SDS011;44659;47.002;9.536;2022-07-12T05:45:10;6.63;;;1.45;;
58876;SDS011;44659;47.002;9.536;2022-07-12T05:47:35;4.28;;;1.35;;
58876;SDS011;44659;47.002;9.536;2022-07-12T05:50:00;7.53;;;1.40;;
58876;SDS011;44659;47.002;9.536;2022-07-12T05:52:25;3.73;;;1.30;;
58876;SDS011;44659;47.002;9.536;2022-07-12T05:55:09;3.22;;;1.10;;
58876;SDS011;44659;47.002;9.536;2022-07-12T05:57:34;2.03;;;1.10;;
58876;SDS011;44659;47.002;9.536;2022-07-12T06:00:00;3.20;;;1.10;;
58876;SDS011;44659;47.002;9.536;2022-07-12T06:02:25;1.40;;;0.97;;
58876;SDS011;44659;47.002;9.536;2022-07-12T06:04:50;2.03;;;1.00;;
58876;SDS011;44659;47.002;9.536;2022-07-12T06:07:15;3.57;;;1.00;;
58876;SDS011;44659;47.002;9.536;2022-07-12T06:09:41;3.78;;;1.30;;
58876;SDS011;44659;47.002;9.536;2022-07-12T06:12:06;2.42;;;1.20;;
58876;SDS011;44659;47.002;9.536;2022-07-12T06:14:32;3.53;;;1.00;;
58876;SDS011;44659;47.002;9.536;2022-07-12T06:16:57;1.92;;;0.80;;
58876;SDS011;44659;47.002;9.536;2022-07-12T06:19:22;2.37;;;1.00;;
58876;SDS011;44659;47.002;9.536;2022-07-12T06:21:48;1.27;;;0.90;;
58876;SDS011;44659;47.002;9.536;2022-07-12T06:24:13;3.13;;;0.90;;
58876;SDS011;44659;47.002;9.536;2022-07-12T06:26:39;4.30;;;1.23;;
58876;SDS011;44659;47.002;9.536;2022-07-12T06:29:04;3.10;;;0.90;;
58876;SDS011;44659;47.002;9.536;2022-07-12T06:31:29;5.30;;;1.33;;
58876;SDS011;44659;47.002;9.536;2022-07-12T06:33:54;2.00;;;0.90;;
58876;SDS011;44659;47.002;9.536;2022-07-12T06:36:19;3.33;;;0.97;;
58876;SDS011;44659;47.002;9.536;2022-07-12T06:38:45;2.05;;;1.10;;
58876;SDS011;44659;47.002;9.536;2022-07-12T06:41:10;3.37;;;0.97;;
58876;SDS011;44659;47.002;9.536;2022-07-12T06:43:35;4.97;;;1.40;;
58876;SDS011;44659;47.002;9.536;2022-07-12T06:46:00;2.67;;;1.07;;
58876;SDS011;44659;47.002;9.536;2022-07-12T06:48:25;3.17;;;1.00;;
58876;SDS011;44659;47.002;9.536;2022-07-12T06:50:51;2.93;;;0.93;;
58876;SDS011;44659;47.002;9.536;2022-07-12T06:53:16;1.85;;;0.90;;
58876;SDS011;44659;47.002;9.536;2022-07-12T06:55:44;1.80;;;0.90;;
58876;SDS011;44659;47.002;9.536;2022-07-12T06:58:10;1.52;;;1.00;;
58876;SDS011;44659;47.002;9.536;2022-07-12T07:00:35;2.95;;;1.00;;
58876;SDS011;44659;47.002;9.536;2022-07-12T07:03:01;2.28;;;1.15;;
58876;SDS011;44659;47.002;9.536;2022-07-12T07:05:26;2.20;;;1.00;;
58876;SDS011;44659;47.002;9.536;2022-07-12T07:07:51;3.58;;;1.20;;
58876;SDS011;44659;47.002;9.536;2022-07-12T07:10:17;2.42;;;1.30;;
58876;SDS011;44659;47.002;9.536;2022-07-12T07:12:42;3.65;;;1.10;;
58876;SDS011;44659;47.002;9.536;2022-07-12T07:15:07;6.63;;;1.27;;
58876;SDS011;44659;47.002;9.536;2022-07-12T07:17:33;3.55;;;1.10;;
58876;SDS011;44659;47.002;9.536;2022-07-12T07:19:58;3.40;;;1.10;;
58876;SDS011;44659;47.002;9.536;2022-07-12T07:22:23;2.07;;;1.20;;
58876;SDS011;44659;47.002;9.536;2022-07-12T07:24:48;4.10;;;1.10;;
58876;SDS011;44659;47.002;9.536;2022-07-12T07:27:14;2.35;;;1.10;;
58876;SDS011;44659;47.002;9.536;2022-07-12T07:29:39;1.77;;;0.83;;
58876;SDS011;44659;47.002;9.536;2022-07-12T07:32:23;3.25;;;1.20;;
58876;SDS011;44659;47.002;9.536;2022-07-12T07:34:48;1.83;;;0.90;;
58876;SDS011;44659;47.002;9.536;2022-07-12T07:37:13;1.93;;;1.00;;
58876;SDS011;44659;47.002;9.536;2022-07-12T07:39:39;1.80;;;1.00;;
58876;SDS011;44659;47.002;9.536;2022-07-12T07:42:04;1.30;;;0.87;;
58876;SDS011;44659;47.002;9.536;2022-07-12T07:44:29;2.42;;;0.90;;
58876;SDS011;44659;47.002;9.536;2022-07-12T07:46:55;3.73;;;1.07;;
58876;SDS011;44659;47.002;9.536;2022-07-12T07:49:20;3.15;;;1.23;;
58876;SDS011;44659;47.002;9.536;2022-07-12T07:51:46;2.43;;;0.93;;
58876;SDS011;44659;47.002;9.536;2022-07-12T07:54:11;2.53;;;1.50;;
58876;SDS011;44659;47.002;9.536;2022-07-12T07:56:36;1.63;;;0.80;;
58876;SDS011;44659;47.002;9.536;2022-07-12T07:59:01;3.40;;;0.90;;
58876;SDS011;44659;47.002;9.536;2022-07-12T08:01:27;3.13;;;1.40;;
58876;SDS011;44659;47.002;9.536;2022-07-12T08:04:08;2.55;;;0.90;;
58876;SDS011;44659;47.002;9.536;2022-07-12T08:06:33;5.75;;;1.00;;
58876;SDS011;44659;47.002;9.536;2022-07-12T08:08:58;1.77;;;0.93;;
58876;SDS011;44659;47.002;9.536;2022-07-12T08:11:23;21.83;;;2.13;;
58876;SDS011;44659;47.002;9.536;2022-07-12T08:13:49;3.30;;;1.10;;
58876;SDS011;44659;47.002;9.536;2022-07-12T08:16:14;2.07;;;0.90;;
58876;SDS011;44659;47.002;9.536;2022-07-12T08:18:39;2.85;;;1.00;;
58876;SDS011;44659;47.002;9.536;2022-07-12T08:21:04;2.03;;;0.93;;
58876;SDS011;44659;47.002;9.536;2022-07-12T08:23:30;2.50;;;1.20;;
58876;SDS011;44659;47.002;9.536;2022-07-12T08:25:55;3.40;;;1.20;;
58876;SDS011;44659;47.002;9.536;2022-07-12T08:28:20;2.53;;;0.90;;
58876;SDS011;44659;47.002;9.536;2022-07-12T08:30:45;2.90;;;1.20;;
58876;SDS011;44659;47.002;9.536;2022-07-12T08:33:10;2.13;;;1.10;;
58876;SDS011;44659;47.002;9.536;2022-07-12T08:35:36;5.43;;;0.90;;
58876;SDS011;44659;47.002;9.536;2022-07-12T08:38:01;1.53;;;0.90;;
58876;SDS011;44659;47.002;9.536;2022-07-12T08:40:26;2.63;;;0.90;;
58876;SDS011;44659;47.002;9.536;2022-07-12T08:42:52;2.20;;;1.00;;
58876;SDS011;44659;47.002;9.536;2022-07-12T08:45:21;4.20;;;0.80;;
58876;SDS011;44659;47.002;9.536;2022-07-12T08:47:46;2.43;;;1.10;;
58876;SDS011;44659;47.002;9.536;2022-07-12T08:50:12;7.60;;;1.00;;
58876;SDS011;44659;47.002;9.536;2022-07-12T08:52:38;2.15;;;0.85;;
58876;SDS011;44659;47.002;9.536;2022-07-12T08:55:27;2.08;;;0.80;;
58876;SDS011;44659;47.002;9.536;2022-07-12T08:57:51;2.67;;;0.90;;
58876;SDS011;44659;47.002;9.536;2022-07-12T09:00:17;2.08;;;0.90;;
58876;SDS011;44659;47.002;9.536;2022-07-12T09:02:42;2.08;;;0.77;;
58876;SDS011;44659;47.002;9.536;2022-07-12T09:05:08;2.97;;;0.98;;
58876;SDS011;44659;47.002;9.536;2022-07-12T09:07:34;2.35;;;0.90;;
58876;SDS011;44659;47.002;9.536;2022-07-12T09:10:02;1.52;;;0.80;;
58876;SDS011;44659;47.002;9.536;2022-07-12T09:12:28;4.38;;;0.95;;
58876;SDS011;44659;47.002;9.536;2022-07-12T09:14:53;2.97;;;0.90;;
58876;SDS011;44659;47.002;9.536;2022-07-12T09:17:21;2.65;;;1.10;;
58876;SDS011;44659;47.002;9.536;2022-07-12T09:19:55;2.05;;;0.77;;
58876;SDS011;44659;47.002;9.536;2022-07-12T09:24:46;3.95;;;0.80;;
58876;SDS011;44659;47.002;9.536;2022-07-12T09:27:11;2.38;;;1.02;;
58876;SDS011;44659;47.002;9.536;2022-07-12T09:29:49;9.15;;;1.10;;
58876;SDS011;44659;47.002;9.536;2022-07-12T09:32:14;4.05;;;1.20;;
58876;SDS011;44659;47.002;9.536;2022-07-12T09:34:58;4.90;;;1.00;;
58876;SDS011;44659;47.002;9.536;2022-07-12T09:37:42;2.42;;;0.88;;
58876;SDS011;44659;47.002;9.536;2022-07-12T09:40:08;3.10;;;0.90;;
58876;SDS011;44659;47.002;9.536;2022-07-12T09:42:34;3.80;;;0.85;;
58876;SDS011;44659;47.002;9.536;2022-07-12T09:44:59;3.72;;;0.80;;
58876;SDS011;44659;47.002;9.536;2022-07-12T09:47:25;2.83;;;0.80;;
58876;SDS011;44659;47.002;9.536;2022-07-12T09:49:51;1.20;;;0.70;;
58876;SDS011;44659;47.002;9.536;2022-07-12T09:52:20;4.55;;;1.00;;
58876;SDS011;44659;47.002;9.536;2022-07-12T09:54:46;1.95;;;0.88;;
58876;SDS011;44659;47.002;9.536;2022-07-12T09:57:16;7.30;;;2.20;;
58876;SDS011;44659;47.002;9.536;2022-07-12T09:59:44;4.15;;;0.90;;
58876;SDS011;44659;47.002;9.536;2022-07-12T10:02:10;3.10;;;0.70;;
58876;SDS011;44659;47.002;9.536;2022-07-12T10:04:40;3.58;;;0.63;;
58876;SDS011;44659;47.002;9.536;2022-07-12T10:07:06;1.58;;;0.77;;
58876;SDS011;44659;47.002;9.536;2022-07-12T10:09:31;1.92;;;0.77;;
58876;SDS011;44659;47.002;9.536;2022-07-12T10:11:57;2.97;;;1.35;;
58876;SDS011;44659;47.002;9.536;2022-07-12T10:14:22;6.38;;;0.77;;
58876;SDS011;44659;47.002;9.536;2022-07-12T10:16:50;2.15;;;0.88;;
58876;SDS011;44659;47.002;9.536;2022-07-12T10:19:25;2.83;;;0.90;;
58876;SDS011;44659;47.002;9.536;2022-07-12T10:21:51;1.20;;;0.70;;
58876;SDS011;44659;47.002;9.536;2022-07-12T10:26:57;1.00;;;0.70;;
58876;SDS011;44659;47.002;9.536;2022-07-12T10:29:22;2.60;;;0.80;;
58876;SDS011;44659;47.002;9.536;2022-07-12T10:31:48;2.40;;;0.77;;
58876;SDS011;44659;47.002;9.536;2022-07-12T10:34:18;1.30;;;0.63;;
58876;SDS011;44659;47.002;9.536;2022-07-12T10:44:36;1.35;;;0.63;;
58876;SDS011;44659;47.002;9.536;2022-07-12T10:47:02;2.90;;;0.73;;
58876;SDS011;44659;47.002;9.536;2022-07-12T10:49:28;4.07;;;1.25;;
58876;SDS011;44659;47.002;9.536;2022-07-12T10:54:35;3.35;;;0.70;;
58876;SDS011;44659;47.002;9.536;2022-07-12T10:57:00;3.05;;;0.57;;
58876;SDS011;44659;47.002;9.536;2022-07-12T10:59:25;3.33;;;0.60;;
58876;SDS011;44659;47.002;9.536;2022-07-12T11:01:51;2.70;;;0.63;;
58876;SDS011;44659;47.002;9.536;2022-07-12T11:04:17;1.27;;;0.60;;
58876;SDS011;44659;47.002;9.536;2022-07-12T11:06:42;1.17;;;0.68;;
58876;SDS011;44659;47.002;9.536;2022-07-12T11:09:11;3.85;;;0.77;;
58876;SDS011;44659;47.002;9.536;2022-07-12T11:11:41;6.32;;;0.57;;
58876;SDS011;44659;47.002;9.536;2022-07-12T11:14:08;3.35;;;0.90;;
58876;SDS011;44659;47.002;9.536;2022-07-12T11:16:33;5.80;;;0.53;;
58876;SDS011;44659;47.002;9.536;2022-07-12T11:18:58;1.97;;;0.50;;
58876;SDS011;44659;47.002;9.536;2022-07-12T11:21:24;5.33;;;0.70;;
58876;SDS011;44659;47.002;9.536;2022-07-12T11:23:49;3.38;;;0.80;;
58876;SDS011;44659;47.002;9.536;2022-07-12T11:26:15;7.32;;;0.73;;
58876;SDS011;44659;47.002;9.536;2022-07-12T11:28:41;8.68;;;0.55;;
58876;SDS011;44659;47.002;9.536;2022-07-12T11:31:08;6.78;;;1.02;;
58876;SDS011;44659;47.002;9.536;2022-07-12T11:33:34;4.05;;;0.70;;
58876;SDS011;44659;47.002;9.536;2022-07-12T11:36:02;1.52;;;0.60;;
58876;SDS011;44659;47.002;9.536;2022-07-12T11:38:27;1.90;;;0.45;;
58876;SDS011;44659;47.002;9.536;2022-07-12T11:40:56;3.60;;;0.93;;
58876;SDS011;44659;47.002;9.536;2022-07-12T11:43:22;1.50;;;0.50;;
58876;SDS011;44659;47.002;9.536;2022-07-12T11:45:47;2.25;;;0.40;;
58876;SDS011;44659;47.002;9.536;2022-07-12T11:48:12;1.50;;;0.63;;
58876;SDS011;44659;47.002;9.536;2022-07-12T11:50:38;3.30;;;0.75;;
58876;SDS011;44659;47.002;9.536;2022-07-12T11:53:14;1.52;;;0.45;;
58876;SDS011;44659;47.002;9.536;2022-07-12T11:55:44;2.42;;;0.70;;
58876;SDS011;44659;47.002;9.536;2022-07-12T11:58:09;4.28;;;0.50;;
58876;SDS011;44659;47.002;9.536;2022-07-12T12:00:34;1.30;;;0.40;;
58876;SDS011;44659;47.002;9.536;2022-07-12T12:03:00;0.50;;;0.40;;
58876;SDS011;44659;47.002;9.536;2022-07-12T12:05:25;4.05;;;0.80;;
58876;SDS011;44659;47.002;9.536;2022-07-12T12:07:50;1.40;;;0.52;;
58876;SDS011;44659;47.002;9.536;2022-07-12T12:10:16;1.27;;;0.50;;
58876;SDS011;44659;47.002;9.536;2022-07-12T12:12:43;5.45;;;0.63;;
58876;SDS011;44659;47.002;9.536;2022-07-12T12:15:10;2.10;;;0.50;;
58876;SDS011;44659;47.002;9.536;2022-07-12T12:17:36;1.20;;;0.45;;
58876;SDS011;44659;47.002;9.536;2022-07-12T12:20:12;3.63;;;0.50;;
58876;SDS011;44659;47.002;9.536;2022-07-12T12:22:38;1.52;;;0.50;;
58876;SDS011;44659;47.002;9.536;2022-07-12T12:25:04;5.63;;;0.40;;
58876;SDS011;44659;47.002;9.536;2022-07-12T12:27:29;3.20;;;0.60;;
58876;SDS011;44659;47.002;9.536;2022-07-12T12:29:58;2.08;;;0.52;;
58876;SDS011;44659;47.002;9.536;2022-07-12T12:32:29;3.13;;;0.68;;
58876;SDS011;44659;47.002;9.536;2022-07-12T12:35:11;2.47;;;0.50;;
58876;SDS011;44659;47.002;9.536;2022-07-12T12:37:36;5.03;;;0.68;;
58876;SDS011;44659;47.002;9.536;2022-07-12T12:40:02;4.30;;;0.57;;
58876;SDS011;44659;47.002;9.536;2022-07-12T12:42:28;1.85;;;0.57;;
58876;SDS011;44659;47.002;9.536;2022-07-12T12:44:53;1.00;;;0.50;;
58876;SDS011;44659;47.002;9.536;2022-07-12T12:47:18;5.80;;;0.67;;
58876;SDS011;44659;47.002;9.536;2022-07-12T12:49:56;3.60;;;0.60;;
58876;SDS011;44659;47.002;9.536;2022-07-12T12:52:28;3.33;;;0.45;;
58876;SDS011;44659;47.002;9.536;2022-07-12T12:54:54;4.38;;;0.82;;
58876;SDS011;44659;47.002;9.536;2022-07-12T12:57:20;0.90;;;0.43;;
58876;SDS011;44659;47.002;9.536;2022-07-12T12:59:45;1.52;;;0.40;;
58876;SDS011;44659;47.002;9.536;2022-07-12T13:02:10;1.67;;;0.60;;
58876;SDS011;44659;47.002;9.536;2022-07-12T13:04:37;1.65;;;0.52;;
58876;SDS011;44659;47.002;9.536;2022-07-12T13:07:02;2.22;;;0.55;;
58876;SDS011;44659;47.002;9.536;2022-07-12T13:09:28;2.28;;;0.50;;
58876;SDS011;44659;47.002;9.536;2022-07-12T13:11:54;5.60;;;0.55;;
58876;SDS011;44659;47.002;9.536;2022-07-12T13:14:19;2.63;;;0.50;;
58876;SDS011;44659;47.002;9.536;2022-07-12T13:16:44;2.80;;;0.50;;
58876;SDS011;44659;47.002;9.536;2022-07-12T13:19:10;1.90;;;0.40;;
58876;SDS011;44659;47.002;9.536;2022-07-12T13:21:35;0.68;;;0.40;;
58876;SDS011;44659;47.002;9.536;2022-07-12T13:24:00;1.17;;;0.40;;
58876;SDS011;44659;47.002;9.536;2022-07-12T13:26:26;3.90;;;0.50;;
58876;SDS011;44659;47.002;9.536;2022-07-12T13:28:52;3.05;;;0.60;;
58876;SDS011;44659;47.002;9.536;2022-07-12T13:31:17;1.27;;;0.55;;
58876;SDS011;44659;47.002;9.536;2022-07-12T13:33:42;1.60;;;0.50;;
58876;SDS011;44659;47.002;9.536;2022-07-12T13:36:08;3.63;;;0.50;;
58876;SDS011;44659;47.002;9.536;2022-07-12T13:38:33;3.90;;;0.50;;
58876;SDS011;44659;47.002;9.536;2022-07-12T13:40:58;3.47;;;0.50;;
58876;SDS011;44659;47.002;9.536;2022-07-12T13:43:23;1.90;;;0.60;;
58876;SDS011;44659;47.002;9.536;2022-07-12T13:45:49;1.00;;;0.40;;
58876;SDS011;44659;47.002;9.536;2022-07-12T13:48:15;2.67;;;0.43;;
58876;SDS011;44659;47.002;9.536;2022-07-12T13:50:40;1.03;;;0.40;;
58876;SDS011;44659;47.002;9.536;2022-07-12T13:53:05;1.53;;;0.40;;
58876;SDS011;44659;47.002;9.536;2022-07-12T13:55:32;0.75;;;0.40;;
58876;SDS011;44659;47.002;9.536;2022-07-12T13:57:57;4.43;;;0.53;;
58876;SDS011;44659;47.002;9.536;2022-07-12T14:00:22;1.52;;;0.47;;
58876;SDS011;44659;47.002;9.536;2022-07-12T14:02:48;2.90;;;0.50;;
58876;SDS011;44659;47.002;9.536;2022-07-12T14:05:14;3.47;;;0.60;;
58876;SDS011;44659;47.002;9.536;2022-07-12T14:07:40;0.40;;;0.30;;
58876;SDS011;44659;47.002;9.536;2022-07-12T14:10:06;1.27;;;0.40;;
58876;SDS011;44659;47.002;9.536;2022-07-12T14:12:31;4.20;;;0.40;;
58876;SDS011;44659;47.002;9.536;2022-07-12T14:14:57;1.88;;;0.60;;
58876;SDS011;44659;47.002;9.536;2022-07-12T14:20:02;5.13;;;1.23;;
58876;SDS011;44659;47.002;9.536;2022-07-12T14:22:28;3.78;;;0.60;;
58876;SDS011;44659;47.002;9.536;2022-07-12T14:24:54;3.13;;;0.38;;
58876;SDS011;44659;47.002;9.536;2022-07-12T14:27:19;4.20;;;0.40;;
58876;SDS011;44659;47.002;9.536;2022-07-12T14:29:44;1.33;;;0.37;;
58876;SDS011;44659;47.002;9.536;2022-07-12T14:32:09;1.73;;;0.50;;
58876;SDS011;44659;47.002;9.536;2022-07-12T14:34:35;3.40;;;0.60;;
58876;SDS011;44659;47.002;9.536;2022-07-12T14:37:00;6.27;;;0.63;;
58876;SDS011;44659;47.002;9.536;2022-07-12T14:39:26;4.18;;;0.73;;
58876;SDS011;44659;47.002;9.536;2022-07-12T14:41:51;1.65;;;0.55;;
58876;SDS011;44659;47.002;9.536;2022-07-12T14:44:16;2.50;;;0.50;;
58876;SDS011;44659;47.002;9.536;2022-07-12T14:46:43;0.50;;;0.50;;
58876;SDS011;44659;47.002;9.536;2022-07-12T14:49:09;2.67;;;0.50;;
58876;SDS011;44659;47.002;9.536;2022-07-12T14:51:34;0.97;;;0.37;;
58876;SDS011;44659;47.002;9.536;2022-07-12T14:53:59;5.50;;;1.43;;
58876;SDS011;44659;47.002;9.536;2022-07-12T14:56:24;0.53;;;0.33;;
58876;SDS011;44659;47.002;9.536;2022-07-12T14:58:50;4.55;;;0.65;;